createdAt,value
2018-02-19T00:01:30.607Z,43.30
2018-02-19T00:03:59.952Z,33.33
2018-02-19T00:06:29.993Z,24.87
2018-02-19T00:08:59.434Z,23.02
2018-02-19T00:11:29.852Z,35.22
2018-02-19T00:13:59.242Z,27.95
2018-02-19T00:16:28.771Z,29.02
2018-02-19T00:18:58.985Z,33.95
2018-02-19T00:21:28.706Z,26.85
2018-02-19T00:23:57.940Z,36.70
2018-02-19T00:26:27.403Z,32.30
2018-02-19T00:28:57.875Z,30.62
2018-02-19T00:31:27.628Z,29.25
2018-02-19T00:33:56.977Z,32.95
2018-02-19T00:36:26.509Z,30.08
2018-02-19T00:38:55.742Z,31.15
2018-02-19T00:41:25.083Z,29.55
2018-02-19T00:43:54.313Z,31.15
2018-02-19T00:46:23.738Z,23.70
2018-02-19T00:48:52.961Z,28.10
2018-02-19T00:51:22.346Z,28.42
2018-02-19T00:53:51.579Z,21.15
2018-02-19T00:56:21.028Z,23.30
2018-02-19T00:58:50.273Z,28.58
2018-02-19T01:01:20.117Z,26.58
2018-02-19T01:03:49.560Z,28.25
2018-02-19T01:06:18.790Z,29.40
2018-02-19T01:08:48.168Z,27.27
2018-02-19T01:11:17.410Z,24.48
2018-02-19T01:13:46.794Z,28.90
2018-02-19T01:16:16.793Z,23.02
2018-02-19T01:18:46.923Z,29.67
2018-02-19T01:21:16.862Z,22.95
2018-02-19T01:23:46.220Z,34.08
2018-02-19T01:26:15.452Z,24.80
2018-02-19T01:28:44.787Z,25.42
2018-02-19T01:31:14.015Z,23.67
2018-02-19T01:33:43.441Z,24.12
2018-02-19T01:36:13.005Z,24.17
2018-02-19T01:38:42.428Z,28.80
2018-02-19T01:41:11.688Z,25.98
2018-02-19T01:43:41.132Z,22.95
2018-02-19T01:46:10.559Z,22.40
2018-02-19T01:48:40.190Z,25.12
2018-02-19T01:51:09.629Z,27.20
2018-02-19T01:53:38.873Z,20.95
2018-02-19T01:56:08.352Z,23.75
2018-02-19T01:58:37.589Z,21.85
2018-02-19T02:01:06.944Z,21.42
2018-02-19T02:03:36.257Z,23.42
2018-02-19T02:06:05.765Z,22.52
2018-02-19T02:08:35.768Z,20.05
2018-02-19T02:11:06.009Z,25.67
2018-02-19T02:13:35.236Z,25.55
2018-02-19T02:16:04.610Z,25.60
2018-02-19T02:18:33.840Z,22.00
2018-02-19T02:21:03.206Z,26.70
2018-02-19T02:23:32.560Z,29.55
2018-02-19T02:26:02.421Z,23.90
2018-02-19T02:28:31.804Z,21.40
2018-02-19T02:31:02.052Z,26.70
2018-02-19T02:33:31.276Z,22.45
2018-02-19T02:36:01.301Z,27.73
2018-02-19T02:38:30.768Z,26.73
2018-02-19T02:41:00.001Z,23.38
2018-02-19T02:43:29.373Z,23.23
2018-02-19T02:45:58.606Z,21.67
2018-02-19T02:48:27.990Z,22.37
2018-02-19T02:50:57.205Z,22.90
2018-02-19T02:53:26.582Z,24.67
2018-02-19T02:55:56.081Z,27.02
2018-02-19T02:58:25.588Z,23.30
2018-02-19T03:00:54.825Z,27.13
2018-02-19T03:03:24.804Z,28.05
2018-02-19T03:05:54.352Z,24.55
2018-02-19T03:08:24.420Z,27.10
2018-02-19T03:10:53.684Z,23.08
2018-02-19T03:13:23.033Z,27.73
2018-02-19T03:15:52.361Z,23.08
2018-02-19T03:18:21.847Z,24.25
2018-02-19T03:20:51.078Z,23.77
2018-02-19T03:23:20.303Z,22.80
2018-02-19T03:25:49.750Z,29.10
2018-02-19T03:28:19.965Z,23.27
2018-02-19T03:30:50.803Z,19.92
2018-02-19T03:33:20.029Z,25.62
2018-02-19T03:35:49.402Z,25.90
2018-02-19T03:38:18.636Z,23.33
2018-02-19T03:40:48.012Z,24.55
2018-02-19T03:43:17.240Z,20.98
2018-02-19T03:45:46.600Z,20.67
2018-02-19T03:48:15.834Z,24.48
2018-02-19T03:50:45.616Z,23.33
2018-02-19T03:53:14.844Z,32.33
2018-02-19T03:55:44.220Z,25.05
2018-02-19T03:58:13.444Z,27.40
2018-02-19T04:00:43.185Z,27.85
2018-02-19T04:03:12.532Z,28.85
2018-02-19T04:05:42.666Z,21.85
2018-02-19T04:08:12.765Z,34.50
2018-02-19T04:10:42.000Z,27.73
2018-02-19T04:13:11.380Z,25.33
2018-02-19T04:15:41.376Z,27.40
2018-02-19T04:18:10.693Z,33.00
2018-02-19T04:20:39.617Z,24.70
2018-02-19T04:23:09.061Z,28.45
2018-02-19T04:25:38.301Z,24.85
2018-02-19T04:28:08.373Z,28.67
2018-02-19T04:30:37.592Z,39.97
2018-02-19T04:33:07.025Z,27.60
2018-02-19T04:35:36.942Z,33.47
2018-02-19T04:38:07.036Z,29.55
2018-02-19T04:40:36.376Z,36.13
2018-02-19T04:43:08.505Z,28.00
2018-02-19T04:45:40.548Z,26.58
2018-02-19T04:48:10.063Z,26.85
2018-02-19T04:50:39.305Z,33.75
2018-02-19T04:53:09.400Z,30.15
2018-02-19T04:55:38.636Z,26.75
2018-02-19T04:58:08.004Z,27.27
2018-02-19T05:00:37.228Z,31.27
2018-02-19T05:03:07.222Z,28.65
2018-02-19T05:05:36.732Z,35.33
2018-02-19T05:08:05.978Z,31.60
2018-02-19T05:10:35.321Z,27.27
2018-02-19T05:13:04.555Z,28.35
2018-02-19T05:15:33.919Z,34.53
2018-02-19T05:18:03.161Z,39.25
2018-02-19T05:20:32.604Z,34.17
2018-02-19T05:23:01.940Z,25.92
2018-02-19T05:25:31.329Z,41.60
2018-02-19T05:28:00.720Z,34.55
2018-02-19T05:30:30.144Z,35.42
2018-02-19T05:32:59.373Z,26.55
2018-02-19T05:35:28.745Z,31.87
2018-02-19T05:37:58.001Z,33.45
2018-02-19T05:40:27.338Z,30.65
2018-02-19T05:42:58.060Z,32.90
2018-02-19T05:45:27.617Z,34.88
2018-02-19T05:47:56.818Z,30.70
2018-02-19T05:50:26.169Z,34.38
2018-02-19T05:52:55.391Z,33.42
2018-02-19T05:55:24.630Z,32.70
2018-02-19T05:57:54.093Z,35.75
2018-02-19T06:00:23.576Z,27.27
2018-02-19T06:02:53.100Z,34.90
2018-02-19T06:05:23.641Z,37.80
2018-02-19T06:07:53.131Z,33.33
2018-02-19T06:10:22.596Z,30.55
2018-02-19T06:12:51.939Z,38.47
2018-02-19T06:15:21.171Z,30.67
2018-02-19T06:17:50.487Z,27.80
2018-02-19T06:20:19.713Z,29.17
2018-02-19T06:22:49.077Z,35.00
2018-02-19T06:25:18.324Z,29.42
2018-02-19T06:27:47.703Z,32.25
2018-02-19T06:30:16.928Z,32.17
2018-02-19T06:32:46.350Z,31.62
2018-02-19T06:35:16.200Z,38.70
2018-02-19T06:37:45.564Z,32.92
2018-02-19T06:40:14.797Z,41.63
2018-02-19T06:42:44.020Z,36.95
2018-02-19T06:45:13.478Z,33.75
2018-02-19T06:47:42.709Z,30.40
2018-02-19T06:50:12.080Z,35.28
2018-02-19T06:52:41.509Z,31.77
2018-02-19T06:55:10.869Z,36.35
2018-02-19T06:57:40.484Z,40.47
2018-02-19T07:00:09.915Z,37.80
2018-02-19T07:02:39.112Z,31.45
2018-02-19T07:05:09.114Z,45.95
2018-02-19T07:07:39.694Z,45.58
2018-02-19T07:10:09.136Z,37.50
2018-02-19T07:12:38.636Z,41.17
2018-02-19T07:15:07.881Z,46.80
2018-02-19T07:17:37.256Z,31.73
2018-02-19T07:20:06.473Z,41.05
2018-02-19T07:22:35.841Z,34.58
2018-02-19T07:25:05.092Z,42.67
2018-02-19T07:27:34.374Z,37.00
2018-02-19T07:30:03.665Z,50.20
2018-02-19T07:32:32.955Z,39.55
2018-02-19T07:35:02.177Z,38.75
2018-02-19T07:37:31.495Z,53.03
2018-02-19T07:40:00.721Z,35.67
2018-02-19T07:42:30.052Z,41.00
2018-02-19T07:44:59.300Z,39.50
2018-02-19T07:47:28.689Z,44.33
2018-02-19T07:49:57.924Z,41.72
2018-02-19T07:52:27.112Z,48.50
2018-02-19T07:54:56.432Z,41.92
2018-02-19T07:57:25.667Z,43.55
2018-02-19T07:59:55.755Z,37.35
2018-02-19T08:02:24.998Z,42.70
2018-02-19T08:04:54.308Z,45.20
2018-02-19T08:07:23.568Z,47.53
2018-02-19T08:09:52.908Z,42.17
2018-02-19T08:12:22.145Z,51.40
2018-02-19T08:14:52.236Z,49.33
2018-02-19T08:17:21.477Z,72.37
2018-02-19T08:19:50.795Z,45.70
2018-02-19T08:22:20.027Z,61.92
2018-02-19T08:24:49.321Z,58.65
2018-02-19T08:27:18.588Z,69.05
2018-02-19T08:29:47.889Z,69.00
2018-02-19T08:32:17.149Z,50.03
2018-02-19T08:34:46.523Z,55.70
2018-02-19T08:37:15.765Z,56.58
2018-02-19T08:39:44.992Z,40.72
2018-02-19T08:42:14.305Z,53.83
2018-02-19T08:44:44.312Z,43.25
2018-02-19T08:47:13.653Z,52.65
2018-02-19T08:49:42.884Z,50.05
2018-02-19T08:52:12.198Z,59.70
2018-02-19T08:54:41.433Z,59.30
2018-02-19T08:57:11.524Z,40.90
2018-02-19T08:59:40.753Z,48.30
2018-02-19T09:02:10.067Z,50.47
2018-02-19T09:04:39.293Z,45.10
2018-02-19T09:07:08.615Z,46.37
2018-02-19T09:09:37.863Z,49.92
2018-02-19T09:12:07.948Z,62.67
2018-02-19T09:14:37.231Z,68.03
2018-02-19T09:17:06.282Z,66.80
2018-02-19T09:19:35.509Z,49.78
2018-02-19T09:22:04.757Z,58.20
2018-02-19T09:24:34.882Z,68.10
2018-02-19T09:27:04.097Z,66.05
2018-02-19T09:29:33.401Z,64.07
2018-02-19T09:32:02.633Z,55.28
2018-02-19T09:34:31.958Z,50.53
2018-02-19T09:37:01.241Z,54.75
2018-02-19T09:39:30.583Z,47.25
2018-02-19T09:41:59.818Z,64.35
2018-02-19T09:44:29.140Z,63.60
2018-02-19T09:46:58.438Z,44.53
2018-02-19T09:49:27.753Z,72.75
2018-02-19T09:51:56.984Z,57.90
2018-02-19T09:54:27.131Z,57.33
2018-02-19T09:56:56.388Z,61.20
2018-02-19T09:59:25.613Z,62.92
2018-02-19T10:01:54.929Z,52.00
2018-02-19T10:04:24.190Z,47.42
2018-02-19T10:06:53.510Z,63.45
2018-02-19T10:09:22.744Z,50.47
2018-02-19T10:11:52.065Z,44.65
2018-02-19T10:14:21.306Z,59.42
2018-02-19T10:16:51.384Z,51.10
2018-02-19T10:19:20.625Z,53.58
2018-02-19T10:21:49.945Z,59.60
2018-02-19T10:24:19.229Z,52.92
2018-02-19T10:26:48.517Z,54.38
2018-02-19T10:29:17.744Z,56.90
2018-02-19T10:31:47.097Z,57.92
2018-02-19T10:34:16.350Z,49.45
2018-02-19T10:36:46.320Z,57.60
2018-02-19T10:39:15.633Z,70.40
2018-02-19T10:41:44.861Z,61.55
2018-02-19T10:44:14.181Z,58.80
2018-02-19T10:46:43.446Z,61.88
2018-02-19T10:49:12.746Z,69.43
2018-02-19T10:51:42.765Z,49.92
2018-02-19T10:54:12.098Z,61.10
2018-02-19T10:56:41.328Z,58.38
2018-02-19T10:59:10.648Z,77.97
2018-02-19T11:01:40.264Z,53.05
2018-02-19T11:04:09.558Z,53.55
2018-02-19T11:06:38.800Z,57.72
2018-02-19T11:09:09.609Z,46.05
2018-02-19T11:11:39.703Z,55.03
2018-02-19T11:14:08.938Z,72.18
2018-02-19T11:16:38.253Z,61.65
2018-02-19T11:19:07.477Z,55.00
2018-02-19T11:21:36.831Z,53.22
2018-02-19T11:24:06.058Z,55.78
2018-02-19T11:26:35.376Z,73.55
2018-02-19T11:29:04.631Z,61.67
2018-02-19T11:31:34.708Z,53.92
2018-02-19T11:34:03.950Z,50.00
2018-02-19T11:36:33.316Z,58.90
2018-02-19T11:39:02.553Z,79.68
2018-02-19T11:41:31.882Z,52.85
2018-02-19T11:44:01.117Z,64.00
2018-02-19T11:46:30.351Z,54.22
2018-02-19T11:49:00.433Z,57.53
2018-02-19T11:51:29.665Z,58.90
2018-02-19T11:53:58.976Z,54.33
2018-02-19T11:56:28.217Z,51.45
2018-02-19T11:58:57.525Z,55.28
2018-02-19T12:01:26.754Z,55.72
2018-02-19T12:03:56.060Z,51.83
2018-02-19T12:06:25.284Z,50.75
2018-02-19T12:08:55.487Z,61.60
2018-02-19T12:11:25.480Z,51.88
2018-02-19T12:13:54.812Z,61.67
2018-02-19T12:16:24.075Z,61.90
2018-02-19T12:18:53.284Z,61.88
2018-02-19T12:21:22.601Z,69.78
2018-02-19T12:23:52.015Z,66.70
2018-02-19T12:26:21.283Z,58.55
2018-02-19T12:28:50.517Z,70.55
2018-02-19T12:31:20.605Z,56.25
2018-02-19T12:33:49.836Z,54.05
2018-02-19T12:36:19.169Z,54.33
2018-02-19T12:38:48.403Z,66.37
2018-02-19T12:41:17.716Z,59.58
2018-02-19T12:43:46.961Z,53.92
2018-02-19T12:46:16.292Z,54.53
2018-02-19T12:48:45.489Z,56.88
2018-02-19T12:51:14.861Z,54.58
2018-02-19T12:53:44.176Z,52.60
2018-02-19T12:56:13.421Z,54.20
2018-02-19T12:58:42.744Z,64.05
2018-02-19T13:01:12.739Z,66.00
2018-02-19T13:03:42.059Z,57.20
2018-02-19T13:06:12.050Z,54.15
2018-02-19T13:08:41.404Z,54.03
2018-02-19T13:11:10.641Z,74.78
2018-02-19T13:13:39.952Z,60.83
2018-02-19T13:16:09.184Z,70.80
2018-02-19T13:18:38.512Z,69.18
2018-02-19T13:21:07.772Z,63.30
2018-02-19T13:23:37.064Z,60.72
2018-02-19T13:26:06.285Z,69.05
2018-02-19T13:28:36.384Z,60.20
2018-02-19T13:31:05.621Z,78.78
2018-02-19T13:33:34.934Z,75.95
2018-02-19T13:36:04.156Z,56.53
2018-02-19T13:38:33.525Z,52.10
2018-02-19T13:41:02.806Z,62.85
2018-02-19T13:43:32.783Z,67.60
2018-02-19T13:46:02.097Z,52.15
2018-02-19T13:48:31.318Z,46.42
2018-02-19T13:51:00.631Z,58.65
2018-02-19T13:53:29.870Z,47.13
2018-02-19T13:55:59.178Z,47.78
2018-02-19T13:58:28.405Z,60.92
2018-02-19T14:00:57.728Z,55.40
2018-02-19T14:03:26.957Z,53.75
2018-02-19T14:05:56.830Z,59.38
2018-02-19T14:08:26.249Z,56.50
2018-02-19T14:10:55.559Z,47.62
2018-02-19T14:13:24.789Z,52.47
2018-02-19T14:15:54.217Z,55.08
2018-02-19T14:18:23.450Z,51.30
2018-02-19T14:20:52.689Z,50.92
2018-02-19T14:23:22.045Z,47.00
2018-02-19T14:25:51.268Z,45.30
2018-02-19T14:28:20.582Z,50.33
2018-02-19T14:30:49.985Z,52.58
2018-02-19T14:33:19.312Z,44.55
2018-02-19T14:35:48.559Z,41.15
2018-02-19T14:38:17.877Z,50.60
2018-02-19T14:40:47.145Z,41.85
2018-02-19T14:43:16.463Z,54.65
2018-02-19T14:45:45.956Z,43.22
2018-02-19T14:48:15.295Z,51.25
2018-02-19T14:50:44.532Z,49.17
2018-02-19T14:53:13.758Z,42.30
2018-02-19T14:55:43.886Z,48.50
2018-02-19T14:58:13.883Z,49.25
2018-02-19T15:00:43.191Z,40.47
2018-02-19T15:03:12.449Z,47.20
2018-02-19T15:05:41.796Z,48.05
2018-02-19T15:08:11.029Z,49.95
2018-02-19T15:10:40.374Z,44.50
2018-02-19T15:13:09.730Z,45.85
2018-02-19T15:15:39.293Z,42.35
2018-02-19T15:18:09.305Z,40.92
2018-02-19T15:20:38.717Z,45.70
2018-02-19T15:23:07.944Z,41.35
2018-02-19T15:25:37.269Z,39.95
2018-02-19T15:28:06.516Z,48.22
2018-02-19T15:30:35.784Z,45.65
2018-02-19T15:33:05.145Z,45.85
2018-02-19T15:35:34.372Z,47.90
2018-02-19T15:38:03.809Z,44.50
2018-02-19T15:40:33.030Z,46.20
2018-02-19T15:43:02.351Z,46.97
2018-02-19T15:45:31.574Z,45.72
2018-02-19T15:48:01.440Z,48.97
2018-02-19T15:50:30.657Z,51.40
2018-02-19T15:53:00.105Z,46.72
2018-02-19T15:55:29.342Z,46.50
2018-02-19T15:57:59.458Z,42.80
2018-02-19T16:00:29.462Z,44.50
2018-02-19T16:03:00.288Z,56.10
2018-02-19T16:05:29.532Z,55.10
2018-02-19T16:07:58.912Z,44.38
2018-02-19T16:10:28.977Z,53.47
2018-02-19T16:12:59.018Z,54.67
2018-02-19T16:15:28.244Z,47.45
2018-02-19T16:17:57.481Z,52.90
2018-02-19T16:20:26.825Z,53.95
2018-02-19T16:22:56.057Z,55.80
2018-02-19T16:25:25.448Z,46.55
2018-02-19T16:27:54.679Z,47.00
2018-02-19T16:30:24.001Z,63.25
2018-02-19T16:32:53.243Z,61.58
2018-02-19T16:35:24.102Z,53.50
2018-02-19T16:37:54.096Z,51.50
2018-02-19T16:40:23.407Z,54.05
2018-02-19T16:42:52.636Z,52.70
2018-02-19T16:45:21.973Z,49.10
2018-02-19T16:47:51.642Z,45.08
2018-02-19T16:50:21.534Z,55.42
2018-02-19T16:52:50.830Z,50.28
2018-02-19T16:55:20.825Z,67.78
2018-02-19T16:57:50.145Z,64.85
2018-02-19T17:00:20.877Z,59.67
2018-02-19T17:02:50.500Z,59.13
2018-02-19T17:05:19.724Z,62.42
2018-02-19T17:07:48.957Z,54.40
2018-02-19T17:10:18.268Z,53.50
2018-02-19T17:12:47.984Z,49.40
2018-02-19T17:15:17.393Z,56.08
2018-02-19T17:17:46.618Z,55.88
2018-02-19T17:20:16.693Z,66.30
2018-02-19T17:22:45.920Z,60.33
2018-02-19T17:25:15.362Z,57.35
2018-02-19T17:27:44.601Z,55.70
2018-02-19T17:30:13.993Z,55.17
2018-02-19T17:32:43.219Z,65.62
2018-02-19T17:35:13.471Z,50.72
2018-02-19T17:37:43.561Z,52.35
2018-02-19T17:40:12.780Z,52.92
2018-02-19T17:42:42.098Z,60.97
2018-02-19T17:45:11.338Z,50.05
2018-02-19T17:47:40.648Z,53.45
2018-02-19T17:50:09.886Z,56.13
2018-02-19T17:52:39.986Z,60.90
2018-02-19T17:55:09.217Z,56.63
2018-02-19T17:57:38.604Z,59.83
2018-02-19T18:00:08.600Z,57.83
2018-02-19T18:02:37.938Z,57.78
2018-02-19T18:05:07.158Z,58.50
2018-02-19T18:07:36.984Z,55.05
2018-02-19T18:10:06.278Z,53.67
2018-02-19T18:12:35.501Z,55.05
2018-02-19T18:15:05.239Z,50.72
2018-02-19T18:17:34.457Z,64.90
2018-02-19T18:20:04.355Z,55.05
2018-02-19T18:22:33.577Z,54.95
2018-02-19T18:25:02.944Z,56.58
2018-02-19T18:27:32.165Z,59.00
2018-02-19T18:30:01.395Z,57.88
2018-02-19T18:32:30.717Z,50.38
2018-02-19T18:34:59.957Z,57.80
2018-02-19T18:37:30.033Z,56.25
2018-02-19T18:39:59.311Z,55.92
2018-02-19T18:42:28.678Z,61.72
2018-02-19T18:44:58.680Z,53.83
2018-02-19T18:47:28.032Z,51.88
2018-02-19T18:49:57.266Z,62.75
2018-02-19T18:52:26.723Z,52.92
2018-02-19T18:54:57.419Z,48.20
2018-02-19T18:57:27.533Z,50.90
2018-02-19T18:59:56.907Z,54.60
2018-02-19T19:02:26.005Z,58.50
2018-02-19T19:04:55.433Z,60.10
2018-02-19T19:07:42.511Z,60.33
2018-02-19T19:10:29.381Z,60.38
2018-02-19T19:12:59.488Z,54.60
2018-02-19T19:15:28.777Z,63.67
2018-02-19T19:17:58.109Z,58.90
2018-02-19T19:20:29.642Z,61.65
2018-02-19T19:22:59.475Z,55.42
2018-02-19T19:25:28.880Z,56.53
2018-02-19T19:27:58.085Z,59.35
2018-02-19T19:30:28.405Z,58.10
2018-02-19T19:32:57.613Z,61.47
2018-02-19T19:35:26.958Z,53.38
2018-02-19T19:37:56.228Z,66.03
2018-02-19T19:40:25.585Z,63.92
2018-02-19T19:42:54.814Z,53.22
2018-02-19T19:45:24.180Z,54.00
2018-02-19T19:47:53.462Z,56.72
2018-02-19T19:50:22.795Z,50.78
2018-02-19T19:52:52.027Z,63.70
2018-02-19T19:55:21.326Z,60.70
2018-02-19T19:57:50.562Z,62.08
2018-02-19T20:00:19.867Z,62.92
2018-02-19T20:02:49.934Z,60.38
2018-02-19T20:05:20.062Z,65.80
2018-02-19T20:07:49.394Z,59.08
2018-02-19T20:10:18.736Z,65.25
2018-02-19T20:12:49.713Z,70.05
2018-02-19T20:15:19.711Z,55.88
2018-02-19T20:17:49.028Z,62.40
2018-02-19T20:20:18.278Z,62.45
2018-02-19T20:22:47.608Z,68.20
2018-02-19T20:25:16.828Z,71.43
2018-02-19T20:27:46.150Z,67.18
2018-02-19T20:30:15.380Z,75.03
2018-02-19T20:32:44.710Z,69.50
2018-02-19T20:35:14.749Z,64.65
2018-02-19T20:37:44.105Z,62.17
2018-02-19T20:40:13.411Z,69.18
2018-02-19T20:42:42.749Z,56.65
2018-02-19T20:45:12.077Z,64.47
2018-02-19T20:47:41.300Z,70.00
2018-02-19T20:50:10.606Z,62.75
2018-02-19T20:52:39.873Z,59.20
2018-02-19T20:55:09.268Z,62.67
2018-02-19T20:57:38.432Z,65.28
2018-02-19T21:00:07.738Z,64.20
2018-02-19T21:02:37.739Z,66.72
2018-02-19T21:05:07.114Z,67.10
2018-02-19T21:07:36.370Z,68.50
2018-02-19T21:10:06.478Z,79.62
2018-02-19T21:12:36.473Z,57.15
2018-02-19T21:15:05.712Z,70.43
2018-02-19T21:17:35.062Z,59.20
2018-02-19T21:20:04.307Z,91.93
2018-02-19T21:22:33.616Z,95.28
2018-02-19T21:25:02.896Z,69.80
2018-02-19T21:27:33.005Z,56.92
2018-02-19T21:30:02.235Z,70.10
2018-02-19T21:32:31.577Z,62.28
2018-02-19T21:35:00.777Z,77.57
2018-02-19T21:37:30.080Z,63.15
2018-02-19T21:39:59.317Z,53.90
2018-02-19T21:42:29.387Z,72.22
2018-02-19T21:44:58.617Z,61.05
2018-02-19T21:47:27.944Z,55.75
2018-02-19T21:49:57.190Z,83.15
2018-02-19T21:52:26.426Z,75.87
2018-02-19T21:54:55.790Z,73.32
2018-02-19T21:57:25.157Z,63.58
2018-02-19T21:59:54.579Z,59.78
2018-02-19T22:02:23.898Z,64.10
2018-02-19T22:04:53.205Z,71.90
2018-02-19T22:07:22.463Z,85.68
2018-02-19T22:09:51.794Z,62.20
2018-02-19T22:12:21.004Z,65.87
2018-02-19T22:14:50.329Z,74.37
2018-02-19T22:17:19.552Z,85.53
2018-02-19T22:19:48.889Z,102.50
2018-02-19T22:22:18.132Z,87.45
2018-02-19T22:24:47.485Z,76.55
2018-02-19T22:27:16.964Z,73.57
2018-02-19T22:29:46.284Z,80.50
2018-02-19T22:32:15.504Z,95.22
2018-02-19T22:34:44.734Z,103.05
2018-02-19T22:37:14.670Z,99.05
2018-02-19T22:39:44.804Z,87.97
2018-02-19T22:42:14.291Z,81.53
2018-02-19T22:44:44.296Z,84.75
2018-02-19T22:47:14.517Z,73.72
2018-02-19T22:49:43.845Z,68.53
2018-02-19T22:52:14.160Z,68.35
2018-02-19T22:54:44.972Z,84.82
2018-02-19T22:57:14.997Z,77.68
2018-02-19T22:59:44.499Z,65.95
2018-02-19T23:02:13.745Z,62.25
2018-02-19T23:04:43.104Z,70.78
2018-02-19T23:07:12.329Z,63.67
2018-02-19T23:09:41.700Z,85.18
2018-02-19T23:12:11.659Z,67.78
2018-02-19T23:14:40.978Z,75.30
2018-02-19T23:17:10.196Z,97.35
2018-02-19T23:19:39.503Z,75.00
2018-02-19T23:22:08.745Z,90.90
2018-02-19T23:24:38.116Z,99.68
2018-02-19T23:27:07.349Z,71.87
2018-02-19T23:29:37.948Z,73.15
2018-02-19T23:32:07.424Z,98.05
2018-02-19T23:34:36.653Z,77.15
2018-02-19T23:37:06.077Z,71.45
2018-02-19T23:39:36.076Z,70.32
2018-02-19T23:42:05.518Z,63.00
2018-02-19T23:44:34.704Z,61.25
2018-02-19T23:47:04.089Z,59.17
2018-02-19T23:49:34.033Z,72.55
2018-02-19T23:52:03.519Z,79.15
2018-02-19T23:54:35.459Z,71.87
2018-02-19T23:57:04.969Z,66.50
2018-02-19T23:59:34.200Z,76.50
